createdAt,value
2019-03-11T00:01:15.786Z,43.90
2019-03-11T00:05:20.677Z,43.10
2019-03-11T00:09:25.631Z,44.40
2019-03-11T00:13:30.539Z,42.30
2019-03-11T00:17:35.558Z,41.10
2019-03-11T00:21:40.428Z,40.00
2019-03-11T00:25:45.317Z,38.80
2019-03-11T00:29:50.287Z,41.70
2019-03-11T00:33:55.175Z,43.90
2019-03-11T00:38:00.162Z,45.40
2019-03-11T00:42:05.046Z,46.50
2019-03-11T00:46:11.066Z,45.80
2019-03-11T00:50:15.943Z,46.40
2019-03-11T00:54:20.988Z,46.50
2019-03-11T00:58:25.921Z,48.00
2019-03-11T01:02:31.304Z,45.70
2019-03-11T01:06:36.203Z,43.30
2019-03-11T01:10:41.283Z,42.40
2019-03-11T01:14:46.162Z,42.00
2019-03-11T01:18:51.224Z,43.10
2019-03-11T01:22:56.169Z,43.00
2019-03-11T01:27:01.035Z,42.40
2019-03-11T01:31:07.120Z,40.00
2019-03-11T01:35:13.129Z,37.70
2019-03-11T01:39:18.134Z,37.30
2019-03-11T01:43:23.017Z,38.10
2019-03-11T01:47:31.889Z,41.00
2019-03-11T01:51:36.760Z,41.40
2019-03-11T01:55:41.805Z,41.70
2019-03-11T01:59:46.696Z,41.10
2019-03-11T02:03:52.701Z,41.30
2019-03-11T02:07:57.611Z,40.60
2019-03-11T02:12:02.743Z,40.70
2019-03-11T02:16:07.621Z,39.90
2019-03-11T02:20:15.985Z,40.60
2019-03-11T02:24:21.079Z,40.50
2019-03-11T02:28:25.961Z,40.50
2019-03-11T02:32:36.866Z,41.30
2019-03-11T02:36:41.744Z,42.40
2019-03-11T02:40:46.871Z,41.50
2019-03-11T02:44:51.780Z,41.90
2019-03-11T02:48:58.175Z,40.40
2019-03-11T02:53:03.085Z,42.10
2019-03-11T02:57:08.154Z,42.20
2019-03-11T03:01:30.827Z,41.70
2019-03-11T03:05:40.519Z,41.20
2019-03-11T03:09:45.423Z,41.90
2019-03-11T03:13:50.279Z,41.60
2019-03-11T03:17:55.423Z,42.10
2019-03-11T03:22:00.313Z,42.30
2019-03-11T03:26:05.233Z,42.10
2019-03-11T03:30:13.298Z,42.30
2019-03-11T03:34:18.204Z,42.60
2019-03-11T03:38:30.516Z,43.80
2019-03-11T03:42:29.873Z,42.80
2019-03-11T03:46:35.984Z,41.90
2019-03-11T03:50:42.020Z,41.90
2019-03-11T03:54:46.894Z,41.20
2019-03-11T03:58:52.963Z,40.20
2019-03-11T04:02:57.832Z,39.80
2019-03-11T04:07:02.843Z,39.20
2019-03-11T04:11:09.843Z,39.80
2019-03-11T04:15:15.128Z,39.20
2019-03-11T04:19:21.139Z,39.00
2019-03-11T04:23:26.139Z,39.40
2019-03-11T04:27:31.146Z,39.00
2019-03-11T04:31:38.284Z,38.60
2019-03-11T04:35:43.141Z,38.60
2019-03-11T04:39:48.170Z,39.00
2019-03-11T04:43:53.074Z,38.90
2019-03-11T04:47:58.041Z,38.40
2019-03-11T04:52:02.951Z,38.30
2019-03-11T04:56:07.855Z,38.40
2019-03-11T05:00:15.109Z,36.90
2019-03-11T05:04:20.120Z,36.30
2019-03-11T05:08:25.036Z,34.50
2019-03-11T05:12:29.947Z,34.90
2019-03-11T05:16:34.812Z,34.80
2019-03-11T05:20:39.885Z,33.00
2019-03-11T05:24:44.925Z,31.30
2019-03-11T05:28:49.867Z,30.80
2019-03-11T05:32:54.942Z,29.60
2019-03-11T05:36:59.855Z,29.70
2019-03-11T05:41:04.867Z,29.20
2019-03-11T05:45:11.589Z,28.80
2019-03-11T05:49:16.579Z,27.50
2019-03-11T05:53:21.483Z,28.10
2019-03-11T05:57:26.435Z,27.60
2019-03-11T06:01:31.483Z,26.60
2019-03-11T06:05:36.447Z,27.70
2019-03-11T06:09:41.680Z,28.00
2019-03-11T06:13:46.717Z,28.10
2019-03-11T06:17:51.665Z,28.80
2019-03-11T06:22:29.053Z,27.90
2019-03-11T06:26:35.332Z,27.90
2019-03-11T06:30:40.367Z,27.90
2019-03-11T06:34:45.250Z,28.20
2019-03-11T06:38:50.166Z,27.40
2019-03-11T06:42:55.230Z,27.10
2019-03-11T06:47:00.170Z,27.80
2019-03-11T06:51:05.109Z,27.90
2019-03-11T06:55:10.448Z,27.20
2019-03-11T06:59:15.403Z,29.20
2019-03-11T07:03:20.650Z,29.10
2019-03-11T07:07:25.599Z,28.70
2019-03-11T07:11:30.523Z,29.30
2019-03-11T07:15:35.385Z,27.70
2019-03-11T07:19:40.376Z,28.00
2019-03-11T07:23:45.333Z,28.30
2019-03-11T07:27:50.349Z,27.40
2019-03-11T07:31:55.281Z,27.40
2019-03-11T07:36:00.399Z,27.00
2019-03-11T07:40:06.527Z,26.80
2019-03-11T07:44:11.684Z,27.90
2019-03-11T07:48:19.185Z,27.70
2019-03-11T07:52:24.673Z,26.70
2019-03-11T07:56:29.987Z,27.10
2019-03-11T08:00:40.268Z,26.20
2019-03-11T08:04:45.433Z,25.10
2019-03-11T08:08:51.696Z,24.90
2019-03-11T08:12:56.958Z,25.00
2019-03-11T08:17:02.208Z,25.00
2019-03-11T08:21:08.242Z,24.90
2019-03-11T08:25:13.396Z,23.70
2019-03-11T08:29:18.245Z,23.80
2019-03-11T08:33:23.163Z,22.40
2019-03-11T08:37:30.203Z,23.80
2019-03-11T08:41:35.133Z,24.10
2019-03-11T08:45:43.932Z,22.10
2019-03-11T08:49:48.869Z,21.60
2019-03-11T08:53:53.762Z,19.40
2019-03-11T08:57:59.827Z,18.90
2019-03-11T09:02:04.802Z,18.30
2019-03-11T09:06:11.860Z,17.50
2019-03-11T09:10:16.868Z,16.20
2019-03-11T09:14:21.814Z,15.20
2019-03-11T09:18:26.697Z,15.30
2019-03-11T09:22:37.870Z,15.70
2019-03-11T09:26:42.755Z,16.80
2019-03-11T09:30:49.911Z,16.10
2019-03-11T09:34:55.101Z,17.30
2019-03-11T09:39:12.273Z,17.30
2019-03-11T09:43:17.171Z,17.10
2019-03-11T09:47:26.056Z,17.40
2019-03-11T09:51:30.909Z,18.60
2019-03-11T09:55:35.803Z,16.10
2019-03-11T09:59:41.951Z,16.60
2019-03-11T10:03:46.858Z,16.50
2019-03-11T10:07:52.035Z,17.30
2019-03-11T10:11:57.078Z,17.90
2019-03-11T10:16:07.888Z,18.00
2019-03-11T10:20:13.230Z,17.50
2019-03-11T10:24:21.417Z,16.80
2019-03-11T10:28:27.422Z,17.80
2019-03-11T10:32:32.315Z,18.30
2019-03-11T10:36:37.214Z,17.70
2019-03-11T10:40:42.755Z,17.10
2019-03-11T10:44:48.020Z,17.40
2019-03-11T10:48:53.017Z,16.40
2019-03-11T10:52:58.080Z,17.50
2019-03-11T10:57:02.983Z,17.70
2019-03-11T11:01:09.765Z,17.60
2019-03-11T11:05:14.746Z,15.70
2019-03-11T11:09:19.727Z,14.40
2019-03-11T11:13:24.659Z,14.40
2019-03-11T11:17:29.696Z,15.20
2019-03-11T11:21:34.941Z,15.20
2019-03-11T11:25:39.836Z,14.20
2019-03-11T11:29:44.860Z,14.90
2019-03-11T11:33:49.766Z,16.30
2019-03-11T11:37:55.305Z,14.70
2019-03-11T11:42:00.809Z,15.30
2019-03-11T11:46:05.957Z,15.20
2019-03-11T11:50:12.821Z,14.30
2019-03-11T11:54:17.771Z,13.20
2019-03-11T11:58:22.654Z,13.60
2019-03-11T12:02:27.744Z,13.90
2019-03-11T12:06:32.743Z,13.60
2019-03-11T12:10:37.764Z,14.40
2019-03-11T12:14:42.693Z,13.90
2019-03-11T12:18:47.607Z,14.10
2019-03-11T12:22:52.619Z,13.30
2019-03-11T12:26:58.078Z,15.70
2019-03-11T12:31:04.253Z,17.70
2019-03-11T12:35:09.951Z,20.50
2019-03-11T12:39:16.313Z,23.10
2019-03-11T12:43:21.591Z,25.60
2019-03-11T12:47:28.038Z,28.10
2019-03-11T12:51:33.335Z,29.60
2019-03-11T12:55:38.279Z,30.70
2019-03-11T12:59:43.374Z,31.10
2019-03-11T13:03:48.328Z,30.20
2019-03-11T13:07:53.317Z,30.10
2019-03-11T13:11:59.464Z,29.60
2019-03-11T13:16:04.464Z,30.20
2019-03-11T13:20:12.495Z,31.60
2019-03-11T13:24:17.690Z,31.70
2019-03-11T13:28:23.116Z,31.40
2019-03-11T13:32:28.327Z,31.90
2019-03-11T13:36:35.272Z,33.00
2019-03-11T13:40:40.565Z,32.90
2019-03-11T13:44:45.959Z,34.10
2019-03-11T13:48:51.228Z,33.80
2019-03-11T13:52:56.611Z,30.90
2019-03-11T13:57:01.755Z,32.00
2019-03-11T14:01:10.323Z,32.20
2019-03-11T14:05:16.076Z,33.20
2019-03-11T14:09:21.377Z,32.80
2019-03-11T14:13:26.497Z,33.70
2019-03-11T14:17:33.241Z,33.30
2019-03-11T14:21:38.501Z,34.70
2019-03-11T14:25:44.916Z,32.80
2019-03-11T14:29:50.247Z,33.20
2019-03-11T14:33:55.469Z,33.60
2019-03-11T14:38:00.744Z,33.40
2019-03-11T14:42:06.012Z,33.80
2019-03-11T14:46:12.469Z,32.80
2019-03-11T14:50:18.053Z,32.70
2019-03-11T14:54:23.325Z,33.10
2019-03-11T14:58:29.572Z,33.00
2019-03-11T15:02:36.126Z,32.70
2019-03-11T15:06:41.041Z,32.10
2019-03-11T15:10:46.339Z,32.10
2019-03-11T15:14:51.374Z,33.00
2019-03-11T15:18:56.343Z,33.10
2019-03-11T15:23:06.254Z,34.10
2019-03-11T15:27:08.115Z,33.10
2019-03-11T15:31:13.136Z,34.20
2019-03-11T15:35:18.083Z,35.10
2019-03-11T15:39:23.139Z,34.10
2019-03-11T15:43:28.139Z,35.30
2019-03-11T15:47:33.129Z,33.00
2019-03-11T15:51:38.154Z,33.40
2019-03-11T15:55:47.566Z,33.80
2019-03-11T15:59:53.890Z,34.30
2019-03-11T16:04:00.207Z,33.90
2019-03-11T16:08:05.666Z,34.10
2019-03-11T16:12:14.816Z,35.30
2019-03-11T16:16:19.902Z,34.50
2019-03-11T16:20:26.179Z,33.10
2019-03-11T16:24:31.811Z,32.30
2019-03-11T16:28:47.545Z,32.20
2019-03-11T16:32:57.870Z,32.70
2019-03-11T16:36:50.187Z,32.90
2019-03-11T16:40:57.300Z,32.10
2019-03-11T16:45:02.306Z,32.00
2019-03-11T16:49:07.712Z,31.00
2019-03-11T16:53:12.885Z,33.30
2019-03-11T16:57:17.920Z,31.80
2019-03-11T17:01:25.182Z,32.50
2019-03-11T17:05:30.139Z,31.50
2019-03-11T17:09:35.175Z,32.70
2019-03-11T17:13:40.100Z,32.10
2019-03-11T17:17:46.120Z,32.50
2019-03-11T17:21:51.023Z,32.90
2019-03-11T17:25:58.039Z,32.10
2019-03-11T17:30:03.033Z,31.80
2019-03-11T17:34:07.913Z,31.40
2019-03-11T17:38:13.012Z,32.00
2019-03-11T17:42:18.148Z,31.30
2019-03-11T17:46:26.312Z,32.60
2019-03-11T17:50:32.267Z,33.20
2019-03-11T17:54:37.882Z,32.50
2019-03-11T17:58:43.540Z,33.50
2019-03-11T18:02:48.693Z,32.20
2019-03-11T18:06:53.642Z,35.30
2019-03-11T18:10:58.633Z,33.80
2019-03-11T18:15:03.711Z,36.40
2019-03-11T18:19:10.187Z,37.60
2019-03-11T18:23:15.129Z,41.20
2019-03-11T18:27:20.400Z,40.60
2019-03-11T18:31:25.332Z,40.60
2019-03-11T18:35:34.248Z,41.00
2019-03-11T18:39:39.302Z,41.70
2019-03-11T18:43:51.499Z,44.10
2019-03-11T18:47:56.358Z,44.70
2019-03-11T18:52:02.497Z,44.90
2019-03-11T18:56:07.537Z,45.60
2019-03-11T19:00:15.700Z,46.10
2019-03-11T19:04:20.713Z,41.20
2019-03-11T19:08:28.041Z,42.00
2019-03-11T19:12:33.203Z,40.00
2019-03-11T19:16:45.529Z,40.30
2019-03-11T19:20:52.649Z,38.90
2019-03-11T19:24:57.683Z,39.20
2019-03-11T19:29:03.629Z,40.20
2019-03-11T19:33:11.012Z,40.30
2019-03-11T19:37:15.213Z,41.30
2019-03-11T19:41:20.195Z,43.50
2019-03-11T19:45:25.286Z,44.50
2019-03-11T19:49:30.275Z,46.10
2019-03-11T19:53:35.328Z,45.00
2019-03-11T19:57:42.485Z,46.40
2019-03-11T20:01:47.565Z,46.70
2019-03-11T20:05:53.974Z,46.90
2019-03-11T20:10:00.368Z,46.30
2019-03-11T20:14:05.363Z,46.40
2019-03-11T20:18:11.730Z,47.90
2019-03-11T20:22:16.696Z,46.60
2019-03-11T20:26:21.851Z,48.30
2019-03-11T20:30:26.886Z,48.90
2019-03-11T20:34:31.911Z,49.30
2019-03-11T20:38:37.833Z,50.80
2019-03-11T20:42:43.861Z,50.80
2019-03-11T20:46:50.005Z,50.90
2019-03-11T20:50:54.969Z,51.70
2019-03-11T20:54:59.855Z,51.70
2019-03-11T20:59:04.726Z,52.20
2019-03-11T21:03:10.671Z,53.50
2019-03-11T21:07:15.608Z,54.00
2019-03-11T21:11:20.661Z,54.20
2019-03-11T21:15:25.750Z,54.90
2019-03-11T21:19:30.804Z,55.40
2019-03-11T21:23:36.923Z,56.40
2019-03-11T21:27:42.133Z,56.40
2019-03-11T21:31:47.146Z,56.40
2019-03-11T21:35:52.115Z,57.50
2019-03-11T21:39:58.169Z,58.60
2019-03-11T21:44:07.854Z,58.60
2019-03-11T21:48:22.184Z,59.90
2019-03-11T21:52:27.055Z,61.20
2019-03-11T21:56:32.011Z,60.70
2019-03-11T22:00:37.907Z,60.40
2019-03-11T22:04:42.787Z,59.30
2019-03-11T22:08:49.711Z,58.50
2019-03-11T22:12:54.715Z,58.00
2019-03-11T22:16:59.654Z,58.30
2019-03-11T22:21:06.644Z,58.30
2019-03-11T22:25:13.129Z,59.20
2019-03-11T22:29:18.106Z,59.50
2019-03-11T22:33:23.116Z,59.70
2019-03-11T22:37:28.333Z,60.00
2019-03-11T22:41:33.333Z,59.90
2019-03-11T22:45:38.238Z,59.70
2019-03-11T22:49:44.264Z,59.60
2019-03-11T22:53:51.610Z,60.20
2019-03-11T22:57:55.698Z,60.40
2019-03-11T23:02:00.658Z,61.00
2019-03-11T23:06:05.814Z,60.90
2019-03-11T23:10:10.954Z,61.90
2019-03-11T23:14:15.893Z,64.80
2019-03-11T23:18:22.013Z,67.00
2019-03-11T23:22:26.873Z,67.50
2019-03-11T23:26:32.926Z,68.30
2019-03-11T23:30:37.838Z,69.10
2019-03-11T23:34:42.796Z,70.50
2019-03-11T23:38:47.786Z,72.30
2019-03-11T23:42:52.676Z,73.10
2019-03-11T23:46:57.761Z,73.90
2019-03-11T23:51:03.759Z,75.10
2019-03-11T23:55:08.762Z,76.00
2019-03-11T23:59:13.652Z,77.10
